Terminal Aerodrome Forecast
Issued by NWS Grand Forks, ND

Home | Current Version | Previous Version | Text Only | Print | Product List | Glossary Off
Versions: 1 2 3 4 5 6 7 8 9 10 11 12 13 14

000
FTUS43 KFGF 272000 AAA
TAFGFK
TAF AMD
KGFK 272019Z 2720/2818 35012KT P6SM BKN025
      TEMPO 2721/2723 BKN040
     FM272300 35014KT P6SM BKN040
     FM280300 34008KT P6SM SKC=

USA.gov is the U.S. government's official web portal to all federal, state and local government web resources and services.